Time;durP1;ratioP1;P1;durP2;ratioP2;P2;SDS_P1;SDS_P2;PMS_P1;PMS_P2;Temp;Humidity;BMP_temperature;BMP_pressure;BME280_temperature;BME280_humidity;BME280_pressure;Samples;Min_cycle;Max_cycle;Signal;HPM_P1;HPM_P2
2023/04/06 00:03:40;;;;;;;4.00;2.53;;;;;;;0.69;92.72;102357.47;10532326;28;20048;-79
2023/04/06 00:08:42;;;;;;;3.90;2.95;;;;;;;0.65;93.29;102348.88;10532147;28;20041;-80
2023/04/06 00:13:45;;;;;;;5.25;2.20;;;;;;;0.63;93.79;102359.00;10492798;28;20043;-79
2023/04/06 00:18:47;;;;;;;2.97;2.10;;;;;;;0.63;93.95;102353.63;10513100;28;20036;-80
2023/04/06 00:23:49;;;;;;;3.33;2.30;;;;;;;0.63;95.41;102341.97;10522486;28;20041;-79
2023/04/06 00:28:52;;;;;;;3.08;2.17;;;;;;;0.63;95.14;102345.50;10535398;28;20048;-77
2023/04/06 00:33:54;;;;;;;4.05;2.67;;;;;;;0.67;96.11;102341.44;10488998;28;20037;-79
2023/04/06 00:38:56;;;;;;;4.57;2.22;;;;;;;0.74;96.03;102352.41;10470836;28;20041;-79
2023/04/06 00:43:59;;;;;;;4.78;2.67;;;;;;;0.76;96.99;102342.25;10488548;28;20048;-79
2023/04/06 00:49:01;;;;;;;3.42;2.60;;;;;;;0.82;96.68;102342.41;10497057;28;20040;-78
2023/04/06 00:54:06;;;;;;;3.03;2.22;;;;;;;0.81;97.19;102335.31;10447259;28;20053;-77
2023/04/06 00:59:11;;;;;;;3.42;2.40;;;;;;;0.85;97.65;102338.50;10454718;28;20056;-80
2023/04/06 01:04:14;;;;;;;5.00;2.90;;;;;;;0.87;97.69;102337.31;10437964;28;20057;-79
2023/04/06 01:09:18;;;;;;;4.13;2.35;;;;;;;0.85;97.59;102347.44;10439607;28;20095;-79
2023/04/06 01:14:20;;;;;;;4.40;2.58;;;;;;;0.88;98.37;102347.13;10483786;28;20048;-78
2023/04/06 01:19:29;;;;;;;3.50;2.20;;;;;;;0.90;98.82;102346.94;10477668;28;20415;-77
2023/04/06 01:24:32;;;;;;;5.25;2.65;;;;;;;0.92;98.94;102354.88;10524770;28;20075;-79
2023/04/06 01:29:44;;;;;;;1.25;1.13;;;;;;;0.90;99.22;102358.59;10483258;28;20044;-79
2023/04/06 01:34:51;;;;;;;3.50;2.35;;;;;;;0.89;99.54;102354.22;10500400;28;20400;-78
2023/04/06 01:39:53;;;;;;;4.03;2.40;;;;;;;0.88;99.47;102368.75;10506566;28;20051;-78
2023/04/06 01:45:08;;;;;;;3.50;2.38;;;;;;;0.88;99.84;102368.75;10463524;28;20072;-78
2023/04/06 01:50:11;;;;;;;4.72;2.45;;;;;;;0.82;100.00;102364.00;10470529;28;20041;-79
2023/04/06 01:55:18;;;;;;;3.50;2.27;;;;;;;0.83;100.00;102370.25;10530760;28;20048;-79
2023/04/06 02:00:43;;;;;;;4.32;2.67;;;;;;;0.79;100.00;102369.78;10492862;28;20547;-78
2023/04/06 02:05:46;;;;;;;3.22;2.15;;;;;;;0.78;100.00;102376.19;10461199;28;20040;-79
2023/04/06 02:11:06;;;;;;;3.33;2.20;;;;;;;0.74;100.00;102371.31;10480132;28;20059;-78
2023/04/06 02:16:20;;;;;;;2.47;1.88;;;;;;;0.76;100.00;102363.88;10487093;28;20041;-78
2023/04/06 02:21:22;;;;;;;3.42;1.83;;;;;;;0.73;100.00;102372.34;10494219;28;20044;-78
2023/04/06 02:26:24;;;;;;;4.03;2.67;;;;;;;0.70;100.00;102370.84;10537600;28;20051;-77
2023/04/06 02:31:27;;;;;;;3.97;2.88;;;;;;;0.69;100.00;102371.81;10490951;28;20045;-78
2023/04/06 02:36:30;;;;;;;2.25;1.92;;;;;;;0.64;100.00;102371.50;10525411;28;20044;-78
2023/04/06 02:41:32;;;;;;;3.53;2.67;;;;;;;0.65;100.00;102386.69;10527055;28;20040;-78
2023/04/06 02:46:35;;;;;;;3.63;2.80;;;;;;;0.71;100.00;102396.00;10520695;28;20066;-79
2023/04/06 02:51:39;;;;;;;3.92;2.33;;;;;;;0.66;100.00;102395.63;10514563;28;20547;-77
2023/04/06 02:56:55;;;;;;;4.25;2.50;;;;;;;0.58;100.00;102383.00;10539851;28;20037;-79
2023/04/06 03:02:02;;;;;;;2.35;2.08;;;;;;;0.56;100.00;102398.56;10496843;28;20047;-78
2023/04/06 03:07:04;;;;;;;3.58;2.50;;;;;;;0.53;100.00;102396.19;10516495;28;20496;-79
2023/04/06 03:12:12;;;;;;;4.03;2.03;;;;;;;0.49;100.00;102400.22;10537419;28;20035;-79
2023/04/06 03:17:35;;;;;;;3.15;2.10;;;;;;;0.49;100.00;102398.38;10550427;28;20036;-79
2023/04/06 03:22:41;;;;;;;4.70;2.78;;;;;;;0.49;100.00;102392.97;10542030;28;20046;-79
2023/04/06 03:27:46;;;;;;;5.53;3.75;;;;;;;0.46;100.00;102395.19;10521554;28;20051;-78
2023/04/06 03:32:52;;;;;;;6.30;3.90;;;;;;;0.45;100.00;102405.16;10481107;28;20048;-77
2023/04/06 03:37:57;;;;;;;5.18;3.67;;;;;;;0.39;100.00;102407.69;10498491;28;20558;-77
2023/04/06 03:43:01;;;;;;;5.47;3.85;;;;;;;0.39;100.00;102413.09;10554174;28;20039;-78
2023/04/06 03:48:05;;;;;;;5.45;3.35;;;;;;;0.39;100.00;102405.84;10516963;28;20063;-78
2023/04/06 03:53:10;;;;;;;2.60;1.92;;;;;;;0.37;100.00;102412.44;10533847;28;20052;-79
2023/04/06 03:58:12;;;;;;;4.25;2.25;;;;;;;0.40;100.00;102417.47;10550728;28;20036;-78
2023/04/06 04:03:14;;;;;;;2.35;1.83;;;;;;;0.35;100.00;102409.91;10500450;28;20040;-77
2023/04/06 04:08:17;;;;;;;8.25;4.32;;;;;;;0.32;100.00;102425.56;10529631;28;20051;-78
2023/04/06 04:13:20;;;;;;;3.25;1.65;;;;;;;0.27;100.00;102418.84;10495135;28;20045;-79
2023/04/06 04:18:25;;;;;;;10.20;4.72;;;;;;;0.29;100.00;102427.59;10528083;28;20087;-78
2023/04/06 04:23:27;;;;;;;8.50;4.38;;;;;;;0.27;100.00;102431.50;10499949;28;20040;-79
2023/04/06 04:28:29;;;;;;;8.32;3.47;;;;;;;0.25;100.00;102431.66;10484252;28;20067;-78
2023/04/06 04:33:32;;;;;;;7.55;3.80;;;;;;;0.22;100.00;102434.72;10488502;28;20412;-78
2023/04/06 04:38:36;;;;;;;10.68;4.80;;;;;;;0.23;100.00;102433.69;10473993;28;20040;-77
2023/04/06 04:43:39;;;;;;;6.95;3.38;;;;;;;0.27;100.00;102437.72;10530385;28;20040;-78
2023/04/06 04:48:42;;;;;;;8.30;4.55;;;;;;;0.26;100.00;102430.66;10534788;28;20040;-78
2023/04/06 04:53:44;;;;;;;9.52;4.88;;;;;;;0.25;100.00;102449.72;10487643;28;20053;-78
2023/04/06 04:58:55;;;;;;;7.30;3.35;;;;;;;0.25;100.00;102434.38;10523483;28;20060;-77
2023/04/06 05:03:58;;;;;;;6.95;3.03;;;;;;;0.23;100.00;102443.66;10506687;28;20035;-78
2023/04/06 05:09:00;;;;;;;6.82;3.40;;;;;;;0.21;100.00;102445.69;10512334;28;20029;-77
2023/04/06 05:14:06;;;;;;;8.52;4.75;;;;;;;0.19;100.00;102443.16;10482484;28;20036;-78
2023/04/06 05:19:08;;;;;;;6.15;3.55;;;;;;;0.25;100.00;102441.63;10463321;28;20531;-78
2023/04/06 05:24:39;;;;;;;8.82;4.47;;;;;;;0.28;100.00;102443.97;10482410;28;20049;-78
2023/04/06 05:29:46;;;;;;;2.15;1.30;;;;;;;0.23;100.00;102460.69;10501602;28;20037;-78
2023/04/06 05:34:50;;;;;;;5.45;3.13;;;;;;;0.22;100.00;102456.31;10508859;28;20044;-78
2023/04/06 05:39:55;;;;;;;4.07;1.98;;;;;;;0.25;100.00;102458.66;10492987;28;20456;-78
2023/04/06 05:44:58;;;;;;;10.90;5.28;;;;;;;0.29;100.00;102459.16;10527755;28;20040;-78
2023/04/06 05:50:01;;;;;;;9.07;4.55;;;;;;;0.24;100.00;102456.13;10538596;28;20058;-78
2023/04/06 05:55:13;;;;;;;8.60;4.40;;;;;;;0.20;100.00;102461.03;10553270;28;20495;-78
2023/04/06 06:00:19;;;;;;;10.07;5.07;;;;;;;0.26;100.00;102462.22;10485965;28;20055;-78
2023/04/06 06:05:34;;;;;;;11.27;5.03;;;;;;;0.29;100.00;102465.41;10502842;28;20040;-78
2023/04/06 06:10:45;;;;;;;12.25;6.45;;;;;;;0.26;100.00;102454.94;10494408;28;20557;-78
2023/04/06 06:15:48;;;;;;;12.07;5.55;;;;;;;0.33;100.00;102448.88;10559984;28;20059;-77
2023/04/06 06:20:52;;;;;;;6.65;3.58;;;;;;;0.31;100.00;102462.53;10559226;28;20044;-78
2023/04/06 06:25:57;;;;;;;6.25;3.40;;;;;;;0.33;100.00;102470.47;10541465;28;20044;-78
2023/04/06 06:31:00;;;;;;;9.10;5.00;;;;;;;0.28;100.00;102466.41;10492569;28;20056;-78
2023/04/06 06:36:03;;;;;;;9.75;4.63;;;;;;;0.37;100.00;102464.56;10537361;28;20040;-78
2023/04/06 06:41:06;;;;;;;8.02;4.68;;;;;;;0.37;100.00;102469.13;10557541;28;20535;-78
2023/04/06 06:46:10;;;;;;;7.30;4.72;;;;;;;0.28;100.00;102469.13;10520876;28;20048;-78
2023/04/06 06:51:13;;;;;;;6.95;3.30;;;;;;;0.34;100.00;102466.75;10516074;28;20484;-78
2023/04/06 06:56:16;;;;;;;6.85;3.20;;;;;;;0.36;100.00;102473.69;10515523;28;20418;-79
2023/04/06 07:01:19;;;;;;;6.18;3.60;;;;;;;0.34;100.00;102481.09;10527340;28;20415;-78
2023/04/06 07:06:21;;;;;;;4.63;2.75;;;;;;;0.39;100.00;102478.75;10557103;28;20071;-78
2023/04/06 07:11:23;;;;;;;6.10;3.45;;;;;;;0.41;100.00;102483.97;10568154;28;20515;-78
2023/04/06 11:39:09;;;;;;;6.93;3.88;;;;;;;4.32;81.38;102509.66;10531373;28;20067;-78
2023/04/06 11:44:11;;;;;;;4.05;2.17;;;;;;;4.44;80.44;102505.38;10497708;28;20056;-77
2023/04/06 11:49:15;;;;;;;3.78;1.83;;;;;;;4.51;79.53;102498.16;10531498;28;20416;-76
2023/04/06 11:54:18;;;;;;;2.00;1.35;;;;;;;4.68;79.00;102495.97;10522784;28;20041;-77
2023/04/06 11:59:21;;;;;;;3.47;1.65;;;;;;;4.89;77.41;102505.97;10508529;28;20047;-78
2023/04/06 12:04:27;;;;;;;1.40;1.30;;;;;;;4.96;77.09;102498.69;10487451;28;20419;-82
2023/04/06 12:09:30;;;;;;;1.75;0.82;;;;;;;5.14;76.50;102503.63;10523293;28;20075;-78
2023/04/06 12:14:33;;;;;;;4.13;2.13;;;;;;;5.29;75.93;102498.06;10510183;28;20037;-81
2023/04/06 12:19:35;;;;;;;1.45;1.35;;;;;;;5.40;73.79;102495.63;10506553;28;20037;-79
2023/04/06 12:24:37;;;;;;;2.97;1.27;;;;;;;5.41;72.56;102499.19;10496839;28;20040;-79
2023/04/06 12:29:40;;;;;;;1.00;0.90;;;;;;;5.39;72.99;102487.66;10530520;28;20453;-80
2023/04/06 12:34:46;;;;;;;2.08;1.38;;;;;;;5.47;72.64;102490.22;10529543;28;20041;-79
2023/04/06 12:39:50;;;;;;;2.47;1.75;;;;;;;5.51;71.08;102488.75;10510629;28;20055;-80
2023/04/06 12:45:17;;;;;;;2.70;1.08;;;;;;;5.55;70.38;102484.59;10475022;28;20048;-79
2023/04/06 12:50:20;;;;;;;0.90;0.85;;;;;;;5.64;70.01;102493.44;10466751;28;20037;-79
2023/04/06 12:55:22;;;;;;;0.90;0.57;;;;;;;5.72;68.06;102474.19;10488657;28;20045;-79
2023/04/06 13:00:25;;;;;;;1.15;1.05;;;;;;;5.78;66.56;102467.94;10453634;28;20028;-79
2023/04/06 13:05:27;;;;;;;3.05;1.20;;;;;;;5.84;66.33;102455.38;10508567;28;20040;-80
2023/04/06 13:10:30;;;;;;;5.72;1.60;;;;;;;5.97;65.49;102452.72;10525603;28;20044;-79
2023/04/06 13:15:34;;;;;;;4.00;1.10;;;;;;;6.06;64.35;102459.63;10497407;28;20048;-77
2023/04/06 13:21:01;;;;;;;1.98;1.33;;;;;;;6.13;64.53;102460.50;10509624;28;20047;-78
2023/04/06 13:26:07;;;;;;;1.25;1.10;;;;;;;6.21;63.53;102440.38;10515656;28;20044;-77
2023/04/06 13:31:13;;;;;;;1.95;0.93;;;;;;;6.27;61.51;102439.56;10496271;28;20496;-80
2023/04/06 13:36:16;;;;;;;1.23;0.52;;;;;;;6.34;62.14;102441.22;10512436;28;20051;-79
2023/04/06 13:41:22;;;;;;;0.63;0.63;;;;;;;6.38;61.25;102424.44;10496820;28;20539;-78
2023/04/06 13:46:27;;;;;;;1.02;0.65;;;;;;;6.44;60.06;102420.91;10516664;28;20041;-78
2023/04/06 13:51:31;;;;;;;1.55;0.98;;;;;;;6.43;59.18;102421.94;10467317;28;20048;-78
2023/04/06 13:56:33;;;;;;;1.08;0.77;;;;;;;6.45;58.86;102425.31;10537968;28;20041;-78
2023/04/06 14:01:35;;;;;;;0.43;0.43;;;;;;;6.58;57.56;102419.81;10525864;28;20492;-79
2023/04/06 14:06:38;;;;;;;2.03;0.68;;;;;;;6.59;57.53;102433.25;10506977;28;20052;-77
2023/04/06 14:11:40;;;;;;;1.20;0.70;;;;;;;6.54;56.82;102408.50;10490706;28;20051;-77
2023/04/06 14:16:46;;;;;;;0.70;0.70;;;;;;;6.59;55.68;102421.50;10503679;28;20047;-80
2023/04/06 14:21:53;;;;;;;2.05;0.75;;;;;;;6.54;55.42;102415.84;10517704;28;20044;-78
2023/04/06 14:26:56;;;;;;;0.60;0.40;;;;;;;6.54;54.12;102424.03;10529763;28;20377;-78
2023/04/06 14:32:01;;;;;;;2.60;0.80;;;;;;;6.56;54.52;102405.56;10513064;28;20040;-78
2023/04/06 14:37:07;;;;;;;1.25;0.95;;;;;;;6.62;53.01;102399.28;10535370;28;20400;-78
2023/04/06 14:42:10;;;;;;;2.13;0.75;;;;;;;6.61;53.77;102395.72;10518443;28;20080;-79
2023/04/06 14:47:15;;;;;;;2.40;0.93;;;;;;;6.67;52.63;102391.28;10529678;28;20039;-78
2023/04/06 14:52:17;;;;;;;0.82;0.52;;;;;;;6.62;52.29;102394.66;10539348;28;20495;-78
2023/04/06 14:57:19;;;;;;;0.93;0.70;;;;;;;6.69;52.63;102382.88;10533239;28;20044;-78
2023/04/06 15:02:22;;;;;;;4.25;1.33;;;;;;;6.76;51.36;102378.25;10515329;28;20515;-79
2023/04/06 15:07:24;;;;;;;4.18;0.98;;;;;;;6.83;51.83;102379.09;10482351;28;20052;-78
2023/04/06 15:12:51;;;;;;;4.03;0.97;;;;;;;6.80;51.63;102366.72;10515240;28;20504;-79
2023/04/06 15:17:54;;;;;;;1.10;0.88;;;;;;;6.77;50.38;102372.59;10498292;28;21005;-78
2023/04/06 15:23:01;;;;;;;1.40;0.93;;;;;;;6.71;49.62;102376.16;10531632;28;20036;-78
2023/04/06 15:28:03;;;;;;;4.25;0.90;;;;;;;6.72;50.02;102366.94;10527079;28;20045;-79
2023/04/06 15:33:07;;;;;;;1.80;0.70;;;;;;;6.69;49.59;102363.78;10514329;28;20045;-78
2023/04/06 15:38:10;;;;;;;2.25;1.30;;;;;;;6.58;49.69;102355.19;10514411;28;20059;-78
2023/04/06 15:43:15;;;;;;;1.75;0.50;;;;;;;6.62;49.94;102358.34;10514817;28;20052;-78
2023/04/06 15:48:18;;;;;;;1.85;0.85;;;;;;;6.58;48.87;102365.28;10531709;28;20048;-78
2023/04/06 15:53:20;;;;;;;1.35;0.70;;;;;;;6.50;48.93;102368.22;10532071;28;20044;-77
2023/04/06 15:58:22;;;;;;;1.50;0.90;;;;;;;6.43;49.37;102373.69;10513740;28;20041;-77
2023/04/06 16:03:25;;;;;;;3.28;0.70;;;;;;;6.36;49.00;102364.66;10488165;28;20051;-77
2023/04/06 16:08:27;;;;;;;1.05;0.55;;;;;;;6.28;50.30;102354.84;10509208;28;20048;-79
2023/04/06 16:13:29;;;;;;;1.27;0.80;;;;;;;6.22;50.84;102358.38;10512491;28;20044;-79
2023/04/06 16:18:35;;;;;;;0.93;0.50;;;;;;;6.19;50.66;102364.25;10487955;28;20059;-78
2023/04/06 16:23:38;;;;;;;1.52;0.45;;;;;;;6.13;49.64;102367.84;10471093;28;20041;-79
2023/04/06 16:28:41;;;;;;;1.77;0.43;;;;;;;6.00;49.47;102370.53;10470823;28;20393;-78
2023/04/06 16:33:44;;;;;;;0.73;0.47;;;;;;;5.91;50.03;102369.09;10455163;28;20037;-78
2023/04/06 16:38:46;;;;;;;1.38;0.40;;;;;;;5.91;50.53;102371.81;10469902;28;20044;-78
2023/04/06 16:43:54;;;;;;;2.85;0.65;;;;;;;5.91;49.84;102369.94;10490210;28;20032;-78
2023/04/06 16:49:02;;;;;;;0.57;0.40;;;;;;;5.72;50.08;102370.66;10469785;28;20047;-78
2023/04/06 16:54:04;;;;;;;1.10;0.55;;;;;;;5.55;51.07;102369.38;10475150;28;20123;-80
2023/04/06 16:59:11;;;;;;;3.22;0.60;;;;;;;5.41;51.56;102363.06;10498644;28;20071;-78
2023/04/06 17:04:13;;;;;;;0.05;0.05;;;;;;;5.34;50.42;102368.47;10466487;28;20039;-78
2023/04/06 17:09:16;;;;;;;1.38;0.95;;;;;;;5.28;50.67;102377.47;10524162;28;20033;-78
2023/04/06 17:14:18;;;;;;;2.83;0.75;;;;;;;5.17;51.52;102374.47;10508953;28;20546;-81
2023/04/06 17:19:20;;;;;;;1.10;0.65;;;;;;;5.10;51.42;102386.19;10484256;28;20045;-79
2023/04/06 17:24:23;;;;;;;0.80;0.60;;;;;;;4.97;51.42;102374.41;10500310;28;20032;-81
2023/04/06 17:29:51;;;;;;;0.32;0.32;;;;;;;4.84;51.81;102373.28;10514350;28;20040;-78
2023/04/06 17:40:23;;;;;;;0.50;0.50;;;;;;;4.65;52.18;102373.16;10520936;28;20084;-79
2023/04/06 17:45:25;;;;;;;0.93;0.57;;;;;;;4.57;52.97;102381.50;10521888;28;20043;-80
2023/04/06 17:50:28;;;;;;;1.13;0.52;;;;;;;4.50;53.07;102393.13;10518658;28;20052;-79
2023/04/06 17:55:30;;;;;;;0.45;0.38;;;;;;;4.42;52.93;102387.88;10524380;28;20071;-79
2023/04/06 18:00:32;;;;;;;1.67;0.50;;;;;;;4.40;52.53;102387.22;10531183;28;20718;-77
2023/04/06 18:05:35;;;;;;;0.40;0.40;;;;;;;4.42;53.26;102385.16;10527598;28;20044;-79
2023/04/06 18:10:44;;;;;;;0.77;0.50;;;;;;;4.43;52.76;102375.09;10519192;28;20051;-80
2023/04/06 18:15:46;;;;;;;0.52;0.52;;;;;;;4.48;52.68;102389.78;10508562;28;20552;-78
2023/04/06 18:20:48;;;;;;;1.52;0.70;;;;;;;4.50;52.37;102392.28;10510150;28;20055;-78
2023/04/06 18:25:50;;;;;;;0.73;0.43;;;;;;;4.52;52.70;102382.09;10515132;28;20043;-80
2023/04/06 18:30:52;;;;;;;3.92;0.70;;;;;;;4.52;52.63;102393.81;10483188;28;20040;-79
2023/04/06 18:35:58;;;;;;;0.22;0.22;;;;;;;4.50;52.82;102384.97;10536653;28;20044;-78
2023/04/06 18:41:00;;;;;;;0.85;0.50;;;;;;;4.53;52.18;102391.94;10516870;28;20061;-78
2023/04/06 18:46:21;;;;;;;1.48;0.70;;;;;;;4.52;52.31;102393.81;10533720;28;20047;-81
2023/04/06 18:51:44;;;;;;;3.50;0.80;;;;;;;4.51;52.54;102403.00;10534438;28;20071;-79
2023/04/06 18:56:47;;;;;;;1.38;0.88;;;;;;;4.50;52.19;102403.16;10476070;28;20040;-80
2023/04/06 19:01:52;;;;;;;1.42;0.73;;;;;;;4.50;52.86;102405.88;10505005;28;20036;-79
2023/04/06 19:06:55;;;;;;;1.77;0.65;;;;;;;4.46;52.87;102397.28;10481177;28;20040;-79
2023/04/06 19:11:57;;;;;;;2.22;0.70;;;;;;;4.42;52.88;102401.44;10526617;28;20037;-79
2023/04/06 19:16:59;;;;;;;2.17;0.85;;;;;;;4.41;52.84;102404.38;10524704;28;20047;-77
2023/04/06 19:22:01;;;;;;;1.60;1.00;;;;;;;4.51;52.54;102405.72;10526291;28;20047;-78
2023/04/06 19:27:03;;;;;;;1.42;0.93;;;;;;;4.47;52.34;102398.97;10524352;28;20036;-78
2023/04/06 19:32:06;;;;;;;1.33;0.68;;;;;;;4.41;52.36;102398.94;10504673;28;20079;-78
2023/04/06 19:37:09;;;;;;;5.22;1.40;;;;;;;4.34;52.71;102406.16;10529868;28;20052;-78
2023/04/06 19:42:13;;;;;;;3.63;0.95;;;;;;;4.35;53.34;102395.13;10539230;28;20058;-79
2023/04/06 19:47:17;;;;;;;2.30;1.05;;;;;;;4.33;53.31;102407.22;10534046;28;20032;-77
2023/04/06 19:52:21;;;;;;;2.42;0.90;;;;;;;4.19;53.07;102406.28;10510685;28;20036;-79
2023/04/06 19:57:25;;;;;;;1.25;0.95;;;;;;;4.17;54.10;102411.91;10514812;28;20044;-78
2023/04/06 20:02:28;;;;;;;3.00;0.80;;;;;;;4.04;54.11;102419.94;10493398;28;20508;-79
2023/04/06 20:07:30;;;;;;;1.83;0.88;;;;;;;3.91;54.12;102417.09;10545343;28;20554;-78
2023/04/06 20:12:32;;;;;;;2.30;0.90;;;;;;;3.73;54.75;102422.94;10553234;28;20044;-77
2023/04/06 20:17:35;;;;;;;3.55;0.90;;;;;;;3.59;55.59;102429.25;10531444;28;20488;-79
2023/04/06 20:22:37;;;;;;;3.25;0.85;;;;;;;3.52;55.44;102415.63;10523157;28;20041;-80
2023/04/06 20:27:40;;;;;;;2.17;0.77;;;;;;;3.48;55.94;102427.06;10530309;28;20044;-79
2023/04/06 20:32:42;;;;;;;1.95;0.93;;;;;;;3.40;56.22;102433.41;10542993;28;20036;-78
2023/04/06 20:37:44;;;;;;;2.00;0.93;;;;;;;3.36;56.59;102436.72;10509631;28;20052;-78
2023/04/06 20:42:47;;;;;;;1.77;0.85;;;;;;;3.32;56.38;102430.81;10458055;28;20044;-78
2023/04/06 20:47:52;;;;;;;1.08;0.80;;;;;;;3.26;56.72;102431.56;10449906;28;20480;-78
2023/04/06 20:52:55;;;;;;;2.63;0.75;;;;;;;3.21;57.57;102434.00;10455568;28;20050;-77
2023/04/06 20:57:58;;;;;;;3.33;1.10;;;;;;;3.11;57.18;102433.44;10453070;28;20048;-78
2023/04/06 21:03:00;;;;;;;2.05;0.77;;;;;;;3.10;57.44;102432.59;10456787;28;20404;-80
2023/04/06 21:08:03;;;;;;;2.10;0.93;;;;;;;3.12;57.80;102440.56;10471407;28;20044;-78
2023/04/06 21:13:06;;;;;;;2.35;1.20;;;;;;;3.12;58.38;102438.69;10469574;28;20044;-79
2023/04/06 21:18:08;;;;;;;1.38;0.93;;;;;;;3.06;58.20;102444.03;10482232;28;20052;-77
2023/04/06 21:23:10;;;;;;;1.30;1.00;;;;;;;3.08;57.82;102447.38;10465312;28;20032;-78
2023/04/06 21:28:13;;;;;;;2.28;0.70;;;;;;;2.96;58.09;102452.47;10464725;28;20550;-77
2023/04/06 21:33:15;;;;;;;3.08;1.10;;;;;;;2.86;58.70;102460.84;10492366;28;20044;-77
2023/04/06 21:38:17;;;;;;;1.45;0.73;;;;;;;2.78;58.34;102462.78;10503835;28;20053;-79
2023/04/06 21:43:20;;;;;;;0.60;0.60;;;;;;;2.69;58.16;102462.03;10517869;28;20041;-76
2023/04/06 21:48:22;;;;;;;1.48;0.82;;;;;;;2.67;58.53;102464.94;10478754;28;20041;-77
2023/04/06 21:53:24;;;;;;;1.33;0.90;;;;;;;2.61;58.93;102465.69;10504247;28;20056;-77
2023/04/06 21:58:31;;;;;;;0.93;0.60;;;;;;;2.61;59.28;102465.69;10522542;28;20048;-77
2023/04/06 22:03:33;;;;;;;2.60;0.80;;;;;;;2.58;58.97;102468.75;10526974;28;20040;-77
2023/04/06 22:08:35;;;;;;;1.92;0.60;;;;;;;2.50;59.06;102463.41;10533398;28;20041;-77
2023/04/06 22:13:38;;;;;;;1.75;0.90;;;;;;;2.39;59.28;102467.38;10541996;28;20048;-78
2023/04/06 22:18:40;;;;;;;0.80;0.80;;;;;;;2.33;59.50;102462.72;10504714;28;20053;-78
2023/04/06 22:23:43;;;;;;;1.20;0.98;;;;;;;2.37;59.74;102464.03;10534971;28;20051;-79
2023/04/06 22:29:16;;;;;;;2.72;0.93;;;;;;;2.34;59.81;102467.09;10510874;28;20515;-76
2023/04/06 22:34:21;;;;;;;1.52;0.70;;;;;;;2.27;59.26;102463.44;10525111;28;20431;-78
2023/04/06 22:39:24;;;;;;;2.08;1.10;;;;;;;2.28;59.67;102461.56;10519912;28;20073;-76
2023/04/06 22:44:27;;;;;;;1.90;0.80;;;;;;;2.28;59.47;102464.28;10569020;28;20039;-77
2023/04/06 22:55:05;;;;;;;4.80;1.08;;;;;;;2.06;59.97;102479.50;10540968;28;21321;-76
2023/04/06 23:00:11;;;;;;;2.97;1.00;;;;;;;1.97;60.19;102476.00;10524467;28;20036;-77
2023/04/06 23:05:14;;;;;;;2.15;1.20;;;;;;;1.93;60.15;102482.81;10521454;28;20055;-78
2023/04/06 23:10:17;;;;;;;0.80;0.80;;;;;;;1.92;60.55;102483.84;10520701;28;20060;-78
2023/04/06 23:15:19;;;;;;;1.10;0.80;;;;;;;1.84;60.52;102483.03;10534248;28;20507;-77
2023/04/06 23:20:21;;;;;;;2.63;1.17;;;;;;;1.77;60.45;102486.47;10530391;28;20048;-77
2023/04/06 23:25:27;;;;;;;2.72;0.82;;;;;;;1.83;60.80;102484.06;10536402;28;20047;-77
2023/04/06 23:30:30;;;;;;;2.45;1.10;;;;;;;1.80;60.63;102480.69;10529834;28;20048;-77
2023/04/06 23:35:33;;;;;;;1.33;0.80;;;;;;;1.68;60.89;102476.69;10558838;28;20542;-78
2023/04/06 23:40:39;;;;;;;1.52;0.90;;;;;;;1.71;61.38;102489.00;10538250;28;20055;-77
2023/04/06 23:45:41;;;;;;;2.10;1.00;;;;;;;1.58;61.48;102484.19;10531416;28;20043;-77
2023/04/06 23:50:44;;;;;;;1.40;0.98;;;;;;;1.48;61.76;102479.00;10528460;28;20416;-77
2023/04/06 23:55:46;;;;;;;0.73;0.70;;;;;;;1.48;61.58;102479.00;10532468;28;20036;-77
